Indianola, Illinois
Current Conditions -  °F | °C
As of 10:55 AM on Saturday 25 Oct 2014 (Local Time) from KPRG Reporting Station
Clear Clear  
Wind Chill: 69°   Ceiling: Unl
Heat Index: 69°   Visibility: 10mi
Dew Point: 59°   Wind: 8mph
Humidity: 72%   Direction: 290°WNW
Pressure: 30.01"   Gusts: NA
Location:  39.93°N, 87.74°W
Report Text: KPRG 251555Z AUTO 29007KT 10SM CLR 20/15 A3001 RMK AO2 T02040151
Loading
Personal Weather Stations






























Interactive Weather Map
Tropical Storm Tracking
New forecast layout! Learn more

10-Day Weather Forecast

Advertisements
Track Severe Weather on mobile